createdAt,value
2023-04-03T00:00:01.189Z,101185.35
2023-04-03T00:02:34.175Z,101183.77
2023-04-03T00:05:01.820Z,101188.44
2023-04-03T00:07:29.362Z,101184.03
2023-04-03T00:09:56.914Z,101186.22
2023-04-03T00:12:24.687Z,101190.60
2023-04-03T00:14:52.229Z,101192.25
2023-04-03T00:17:19.795Z,101191.85
2023-04-03T00:19:47.394Z,101191.45
2023-04-03T00:22:14.954Z,101189.34
2023-04-03T00:24:42.610Z,101193.02
2023-04-03T00:27:11.538Z,101194.48
2023-04-03T00:29:39.115Z,101195.42
2023-04-03T00:32:06.734Z,101191.23
2023-04-03T00:34:34.340Z,101195.79
2023-04-03T00:37:02.024Z,101193.48
2023-04-03T00:39:30.117Z,101197.70
2023-04-03T00:41:57.743Z,101196.27
2023-04-03T00:44:57.663Z,101194.33
2023-04-03T00:47:26.541Z,101198.58
2023-04-03T00:49:55.067Z,101196.64
2023-04-03T00:52:26.128Z,101198.19
2023-04-03T00:54:58.682Z,101199.02
2023-04-03T00:57:26.990Z,101199.16
2023-04-03T00:59:59.136Z,101200.99
2023-04-03T01:02:26.792Z,101207.77
2023-04-03T01:04:55.004Z,101210.27
2023-04-03T01:07:24.779Z,101212.28
2023-04-03T01:09:56.750Z,101218.24
2023-04-03T01:12:26.548Z,101215.89
2023-04-03T01:14:55.948Z,101218.51
2023-04-03T01:17:32.834Z,101219.40
2023-04-03T01:20:32.244Z,101220.74
2023-04-03T01:23:12.737Z,101218.11
2023-04-03T01:25:43.225Z,101221.21
2023-04-03T01:28:14.025Z,101223.05
2023-04-03T01:30:48.614Z,101231.19
2023-04-03T01:33:16.633Z,101233.64
2023-04-03T01:35:45.087Z,101236.30
2023-04-03T01:38:13.704Z,101233.05
2023-04-03T01:40:41.335Z,101233.08
2023-04-03T01:43:10.462Z,101237.58
2023-04-03T01:45:38.048Z,101237.73
2023-04-03T01:48:05.969Z,101242.42
2023-04-03T01:50:34.635Z,101242.39
2023-04-03T01:53:02.541Z,101248.02
2023-04-03T01:55:30.274Z,101246.40
2023-04-03T01:57:58.098Z,101254.33
2023-04-03T02:00:26.915Z,101252.11
2023-04-03T02:02:54.685Z,101257.20
2023-04-03T02:05:22.238Z,101257.45
2023-04-03T02:07:49.821Z,101254.66
2023-04-03T02:10:17.590Z,101258.08
2023-04-03T02:12:45.633Z,101254.48
2023-04-03T02:15:13.238Z,101257.73
2023-04-03T02:17:40.839Z,101251.84
2023-04-03T02:20:10.162Z,101254.55
2023-04-03T02:22:37.908Z,101253.78
2023-04-03T02:25:06.605Z,101255.45
2023-04-03T02:27:34.207Z,101249.77
2023-04-03T02:30:01.798Z,101253.42
2023-04-03T02:32:29.960Z,101253.25
2023-04-03T02:34:57.841Z,101253.59
2023-04-03T02:37:25.800Z,101260.14
2023-04-03T02:39:54.107Z,101259.70
2023-04-03T02:42:21.809Z,101263.50
2023-04-03T02:44:49.394Z,101266.86
2023-04-03T02:47:17.508Z,101265.23
2023-04-03T02:49:46.323Z,101266.30
2023-04-03T02:52:14.281Z,101271.35
2023-04-03T02:54:42.658Z,101274.33
2023-04-03T02:57:11.240Z,101277.23
2023-04-03T02:59:40.844Z,101279.23
2023-04-03T03:02:09.152Z,101280.27
2023-04-03T03:04:37.506Z,101277.68
2023-04-03T03:07:05.676Z,101278.57
2023-04-03T03:09:33.510Z,101276.98
2023-04-03T03:12:01.124Z,101279.30
2023-04-03T03:14:30.776Z,101279.22
2023-04-03T03:16:58.350Z,101274.96
2023-04-03T03:19:25.898Z,101275.20
2023-04-03T03:21:53.802Z,101273.61
2023-04-03T03:24:21.392Z,101274.27
2023-04-03T03:26:49.077Z,101278.70
2023-04-03T03:29:17.020Z,101280.52
2023-04-03T03:31:45.755Z,101284.10
2023-04-03T03:34:13.503Z,101281.13
2023-04-03T03:36:41.531Z,101291.34
2023-04-03T03:39:09.225Z,101291.03
2023-04-03T03:41:36.936Z,101291.20
2023-04-03T03:44:05.743Z,101290.85
2023-04-03T03:46:33.869Z,101294.13
2023-04-03T03:49:01.498Z,101296.23
2023-04-03T03:51:29.330Z,101298.92
2023-04-03T03:53:58.397Z,101301.58
2023-04-03T03:56:26.798Z,101301.09
2023-04-03T03:58:56.475Z,101305.44
2023-04-03T04:01:25.175Z,101302.84
2023-04-03T04:03:54.289Z,101300.98
2023-04-03T04:06:23.809Z,101305.85
2023-04-03T04:08:51.629Z,101305.25
2023-04-03T04:11:19.344Z,101304.98
2023-04-03T04:13:47.613Z,101306.42
2023-04-03T04:16:15.579Z,101308.95
2023-04-03T04:18:43.167Z,101314.77
2023-04-03T04:21:10.828Z,101314.30
2023-04-03T04:23:39.804Z,101315.45
2023-04-03T04:26:07.463Z,101318.83
2023-04-03T04:28:36.680Z,101320.98
2023-04-03T04:31:04.705Z,101326.80
2023-04-03T04:33:32.789Z,101327.41
2023-04-03T04:36:01.677Z,101329.13
2023-04-03T04:38:30.488Z,101336.31
2023-04-03T04:40:58.264Z,101341.05
2023-04-03T04:43:25.828Z,101342.16
2023-04-03T04:46:03.313Z,101347.43
2023-04-03T04:48:32.826Z,101348.16
2023-04-03T04:51:00.945Z,101353.00
2023-04-03T04:53:28.619Z,101353.92
2023-04-03T04:55:56.317Z,101355.59
2023-04-03T04:58:24.336Z,101356.95
2023-04-03T05:01:00.411Z,101361.88
2023-04-03T05:03:28.481Z,101357.88
2023-04-03T05:05:56.433Z,101360.11
2023-04-03T05:08:24.203Z,101358.77
2023-04-03T05:10:53.700Z,101361.81
2023-04-03T05:13:23.113Z,101363.10
2023-04-03T05:15:50.695Z,101364.53
2023-04-03T05:18:18.426Z,101369.09
2023-04-03T05:20:48.885Z,101368.00
2023-04-03T05:23:17.140Z,101373.93
2023-04-03T05:25:47.238Z,101377.44
2023-04-03T05:28:15.829Z,101376.11
2023-04-03T05:30:43.645Z,101377.35
2023-04-03T05:33:11.446Z,101382.55
2023-04-03T05:35:46.350Z,101377.89
2023-04-03T05:38:18.944Z,101384.98
2023-04-03T05:40:46.821Z,101387.30
2023-04-03T05:43:15.194Z,101389.73
2023-04-03T05:45:46.710Z,101390.63
2023-04-03T05:48:15.136Z,101393.25
2023-04-03T05:50:43.908Z,101390.64
2023-04-03T05:53:19.601Z,101392.05
2023-04-03T05:55:47.288Z,101391.13
2023-04-03T05:58:15.745Z,101391.66
2023-04-03T06:00:47.340Z,101389.41
2023-04-03T06:03:15.692Z,101389.06
2023-04-03T06:05:44.359Z,101390.84
2023-04-03T06:08:13.221Z,101396.44
2023-04-03T06:10:41.039Z,101398.02
2023-04-03T06:13:09.026Z,101396.08
2023-04-03T06:15:37.094Z,101399.38
2023-04-03T06:18:04.866Z,101397.92
2023-04-03T06:20:33.945Z,101396.21
2023-04-03T06:23:02.533Z,101397.71
2023-04-03T06:25:30.274Z,101394.83
2023-04-03T06:27:58.228Z,101390.98
2023-04-03T06:30:26.625Z,101391.92
2023-04-03T06:32:54.486Z,101398.35
2023-04-03T06:35:24.164Z,101401.48
2023-04-03T06:37:51.711Z,101401.27
2023-04-03T06:40:24.507Z,101401.58
2023-04-03T06:42:52.747Z,101402.98
2023-04-03T06:45:21.949Z,101404.49
2023-04-03T06:47:50.663Z,101411.98
2023-04-03T06:50:18.491Z,101410.53
2023-04-03T06:52:46.326Z,101417.16
2023-04-03T06:55:14.041Z,101416.98
2023-04-03T06:57:41.798Z,101424.22
2023-04-03T07:00:12.499Z,101420.98
2023-04-03T07:02:41.320Z,101426.98
2023-04-03T07:05:09.804Z,101428.98
2023-04-03T07:07:38.175Z,101433.89
2023-04-03T07:10:08.765Z,101433.48
2023-04-03T07:12:36.758Z,101432.52
2023-04-03T07:15:06.255Z,101435.80
2023-04-03T07:17:33.930Z,101436.77
2023-04-03T07:20:04.522Z,101439.49
2023-04-03T07:22:32.707Z,101439.88
2023-04-03T07:25:01.230Z,101444.15
2023-04-03T07:27:29.851Z,101445.95
2023-04-03T07:29:57.629Z,101444.95
2023-04-03T07:32:25.258Z,101445.18
2023-04-03T07:34:52.853Z,101443.61
2023-04-03T07:37:20.891Z,101444.55
2023-04-03T07:39:49.013Z,101449.73
2023-04-03T07:42:16.828Z,101447.35
2023-04-03T07:44:44.574Z,101448.89
2023-04-03T07:47:13.754Z,101451.45
2023-04-03T07:49:41.903Z,101445.13
2023-04-03T07:52:10.073Z,101448.70
2023-04-03T07:54:37.978Z,101445.48
2023-04-03T07:57:06.307Z,101443.64
2023-04-03T07:59:34.167Z,101447.02
2023-04-03T08:02:01.888Z,101440.27
2023-04-03T08:04:29.527Z,101440.46
2023-04-03T08:06:57.122Z,101443.86
2023-04-03T08:09:24.829Z,101446.36
2023-04-03T08:11:53.840Z,101448.45
2023-04-03T08:14:21.489Z,101442.25
2023-04-03T08:16:49.490Z,101442.69
2023-04-03T08:19:25.413Z,101438.61
2023-04-03T08:21:54.848Z,101445.31
2023-04-03T08:24:22.683Z,101447.77
2023-04-03T08:26:50.412Z,101453.95
2023-04-03T08:29:18.061Z,101449.21
2023-04-03T08:31:45.701Z,101442.40
2023-04-03T08:34:14.866Z,101443.61
2023-04-03T08:36:42.748Z,101441.58
2023-04-03T08:39:11.538Z,101434.79
2023-04-03T08:41:41.774Z,101440.63
2023-04-03T08:44:23.345Z,101444.10
2023-04-03T08:47:02.982Z,101446.98
2023-04-03T08:49:33.916Z,101446.05
2023-04-03T08:52:06.282Z,101443.55
2023-04-03T08:54:38.277Z,101437.69
2023-04-03T08:57:06.934Z,101437.28
2023-04-03T08:59:38.735Z,101433.96
2023-04-03T09:02:22.790Z,101436.12
2023-04-03T09:04:50.411Z,101426.90
2023-04-03T09:07:26.592Z,101433.63
2023-04-03T09:09:55.186Z,101439.69
2023-04-03T09:12:26.940Z,101439.02
2023-04-03T09:15:02.023Z,101440.17
2023-04-03T09:17:41.792Z,101436.05
2023-04-03T09:20:21.963Z,101436.80
2023-04-03T09:22:52.744Z,101433.03
2023-04-03T09:25:22.900Z,101440.64
2023-04-03T09:27:51.074Z,101439.61
2023-04-03T09:30:21.801Z,101435.29
2023-04-03T09:32:51.356Z,101437.41
2023-04-03T09:35:27.319Z,101440.52
2023-04-03T09:38:02.140Z,101437.56
2023-04-03T09:40:36.235Z,101438.79
2023-04-03T09:43:21.857Z,101444.34
2023-04-03T09:45:52.213Z,101442.58
2023-04-03T09:48:21.172Z,101442.35
2023-04-03T09:51:01.785Z,101443.17
2023-04-03T09:53:38.682Z,101442.27
2023-04-03T09:56:22.157Z,101435.79
2023-04-03T09:58:51.723Z,101443.75
2023-04-03T10:01:26.735Z,101441.13
2023-04-03T10:04:09.658Z,101437.50
2023-04-03T10:06:43.575Z,101439.20
2023-04-03T10:09:20.787Z,101440.19
2023-04-03T10:12:05.213Z,101437.88
2023-04-03T10:14:33.192Z,101433.87
2023-04-03T10:17:17.113Z,101426.05
2023-04-03T10:19:52.056Z,101428.92
2023-04-03T10:22:25.347Z,101429.04
2023-04-03T10:25:05.071Z,101434.65
2023-04-03T10:27:42.615Z,101433.37
2023-04-03T10:30:27.439Z,101428.93
2023-04-03T10:33:06.675Z,101429.46
2023-04-03T10:35:46.326Z,101423.61
2023-04-03T10:38:23.440Z,101416.89
2023-04-03T10:41:02.275Z,101424.77
2023-04-03T10:43:37.236Z,101426.54
2023-04-03T10:46:12.813Z,101417.67
2023-04-03T10:48:53.663Z,101422.91
2023-04-03T10:51:29.001Z,101415.48
2023-04-03T10:54:01.558Z,101414.31
2023-04-03T10:56:36.480Z,101410.84
2023-04-03T10:59:16.486Z,101414.17
2023-04-03T11:01:47.142Z,101413.45
2023-04-03T11:04:16.837Z,101412.41
2023-04-03T11:06:48.048Z,101417.55
2023-04-03T11:09:23.566Z,101417.92
2023-04-03T11:11:56.559Z,101417.96
2023-04-03T11:14:28.925Z,101415.23
2023-04-03T11:17:10.360Z,101404.11
2023-04-03T11:19:46.666Z,101414.66
2023-04-03T11:22:23.443Z,101409.56
2023-04-03T11:25:04.288Z,101414.16
2023-04-03T11:27:40.903Z,101410.66
2023-04-03T11:30:19.464Z,101409.33
2023-04-03T11:33:19.138Z,101400.47
2023-04-03T11:35:49.183Z,101405.27
2023-04-03T11:38:23.824Z,101406.85
2023-04-03T11:40:52.454Z,101412.27
2023-04-03T11:43:26.075Z,101408.91
2023-04-03T11:45:59.675Z,101410.86
2023-04-03T11:49:00.042Z,101401.91
2023-04-03T11:51:42.237Z,101397.75
2023-04-03T11:54:45.231Z,101399.05
2023-04-03T11:57:48.065Z,101391.34
2023-04-03T12:00:54.126Z,101388.61
2023-04-03T12:04:14.240Z,101398.52
2023-04-03T12:07:10.477Z,101396.66
2023-04-03T12:10:30.424Z,101398.19
2023-04-03T12:13:02.727Z,101398.59
2023-04-03T12:15:54.045Z,101400.39
2023-04-03T12:18:59.134Z,101400.34
2023-04-03T12:22:07.593Z,101392.64
2023-04-03T12:24:39.416Z,101379.73
2023-04-03T12:27:18.585Z,101371.79
2023-04-03T12:29:52.715Z,101370.75
2023-04-03T12:32:35.274Z,101368.21
2023-04-03T12:35:20.735Z,101364.35
2023-04-03T12:38:14.639Z,101374.34
2023-04-03T12:40:48.345Z,101360.05
2023-04-03T12:43:40.386Z,101370.45
2023-04-03T12:46:16.787Z,101375.30
2023-04-03T12:48:53.949Z,101382.13
2023-04-03T12:51:28.856Z,101378.14
2023-04-03T12:54:02.503Z,101379.84
2023-04-03T12:56:33.384Z,101375.75
2023-04-03T12:59:16.762Z,101368.08
2023-04-03T13:01:45.017Z,101348.96
2023-04-03T13:04:13.362Z,101338.58
2023-04-03T13:06:43.532Z,101342.36
2023-04-03T13:09:22.389Z,101351.64
2023-04-03T13:11:52.629Z,101357.26
2023-04-03T13:14:23.059Z,101358.86
2023-04-03T13:16:58.668Z,101346.72
2023-04-03T13:19:29.632Z,101334.38
2023-04-03T13:22:03.482Z,101327.30
2023-04-03T13:24:34.700Z,101323.97
2023-04-03T13:27:02.948Z,101332.91
2023-04-03T13:29:33.937Z,101339.43
2023-04-03T13:32:05.254Z,101341.54
2023-04-03T13:34:40.011Z,101354.29
2023-04-03T13:37:19.660Z,101353.98
2023-04-03T13:39:57.351Z,101344.46
2023-04-03T13:42:29.960Z,101354.48
2023-04-03T13:45:29.379Z,101364.81
2023-04-03T13:48:23.123Z,101358.95
2023-04-03T13:50:59.520Z,101339.21
2023-04-03T13:53:28.676Z,101338.75
2023-04-03T13:56:00.691Z,101348.58
2023-04-03T13:58:30.899Z,101351.83
2023-04-03T14:01:07.428Z,101350.98
2023-04-03T14:03:42.609Z,101333.61
2023-04-03T14:06:12.329Z,101327.33
2023-04-03T14:08:43.576Z,101327.55
2023-04-03T14:11:15.838Z,101335.98
2023-04-03T14:13:44.116Z,101337.73
2023-04-03T14:16:16.939Z,101329.92
2023-04-03T14:18:45.319Z,101322.97
2023-04-03T14:21:14.965Z,101315.67
2023-04-03T14:23:42.664Z,101309.93
2023-04-03T14:26:13.674Z,101319.36
2023-04-03T14:28:43.237Z,101329.64
2023-04-03T14:31:12.844Z,101332.41
2023-04-03T14:33:40.977Z,101343.68
2023-04-03T14:36:15.004Z,101344.79
2023-04-03T14:38:44.549Z,101337.91
2023-04-03T14:41:16.861Z,101334.90
2023-04-03T14:43:45.949Z,101337.91
2023-04-03T14:46:17.688Z,101333.25
2023-04-03T14:48:46.244Z,101325.24
2023-04-03T14:51:15.536Z,101330.13
2023-04-03T14:53:45.709Z,101333.80
2023-04-03T14:56:16.457Z,101335.04
2023-04-03T14:58:44.499Z,101336.98
2023-04-03T15:01:14.335Z,101332.36
2023-04-03T15:03:42.056Z,101339.14
2023-04-03T15:06:13.479Z,101336.09
2023-04-03T15:08:42.572Z,101351.27
2023-04-03T15:11:11.262Z,101353.84
2023-04-03T15:13:39.799Z,101347.34
2023-04-03T15:16:16.365Z,101346.91
2023-04-03T15:18:44.567Z,101351.15
2023-04-03T15:21:12.233Z,101351.89
2023-04-03T15:23:39.890Z,101349.29
2023-04-03T15:26:07.610Z,101345.92
2023-04-03T15:28:38.231Z,101352.28
2023-04-03T15:31:06.668Z,101357.08
2023-04-03T15:33:35.097Z,101356.50
2023-04-03T15:36:07.255Z,101359.64
2023-04-03T15:38:37.860Z,101360.91
2023-04-03T15:41:06.063Z,101361.44
2023-04-03T15:43:35.514Z,101364.86
2023-04-03T15:46:04.700Z,101367.31
2023-04-03T15:48:32.492Z,101368.30
2023-04-03T15:51:01.185Z,101365.13
2023-04-03T15:53:28.792Z,101372.41
2023-04-03T15:55:56.380Z,101372.91
2023-04-03T15:58:24.016Z,101372.31
2023-04-03T16:00:51.987Z,101369.38
2023-04-03T16:03:22.158Z,101375.46
2023-04-03T16:05:50.354Z,101375.59
2023-04-03T16:08:19.082Z,101369.42
2023-04-03T16:10:47.297Z,101373.45
2023-04-03T16:13:15.551Z,101372.61
2023-04-03T16:15:43.466Z,101376.77
2023-04-03T16:18:13.333Z,101376.86
2023-04-03T16:20:41.189Z,101378.37
2023-04-03T16:23:09.056Z,101382.35
2023-04-03T16:25:36.728Z,101387.25
2023-04-03T16:28:04.603Z,101384.57
2023-04-03T16:30:32.218Z,101389.55
2023-04-03T16:33:00.033Z,101388.95
2023-04-03T16:35:28.058Z,101388.49
2023-04-03T16:37:55.601Z,101391.73
2023-04-03T16:40:23.660Z,101387.77
2023-04-03T16:42:51.559Z,101395.73
2023-04-03T16:45:19.297Z,101394.70
2023-04-03T16:47:46.871Z,101397.02
2023-04-03T16:50:14.594Z,101398.64
2023-04-03T16:52:42.189Z,101403.45
2023-04-03T16:55:10.269Z,101400.56
2023-04-03T16:57:38.001Z,101400.43
2023-04-03T17:00:09.056Z,101410.20
2023-04-03T17:02:36.780Z,101410.57
2023-04-03T17:05:05.603Z,101410.97
2023-04-03T17:07:33.497Z,101407.72
2023-04-03T17:10:01.182Z,101410.92
2023-04-03T17:12:28.896Z,101409.63
2023-04-03T17:14:56.448Z,101406.39
2023-04-03T17:17:26.531Z,101405.08
2023-04-03T17:19:56.025Z,101411.20
2023-04-03T17:22:23.594Z,101411.11
2023-04-03T17:24:51.334Z,101413.59
2023-04-03T17:27:18.935Z,101416.47
2023-04-03T17:29:46.497Z,101419.80
2023-04-03T17:32:14.140Z,101424.27
2023-04-03T17:34:42.126Z,101427.52
2023-04-03T17:37:09.842Z,101429.58
2023-04-03T17:39:37.658Z,101429.54
2023-04-03T17:42:05.526Z,101429.02
2023-04-03T17:44:33.072Z,101426.55
2023-04-03T17:47:00.715Z,101432.23
2023-04-03T17:49:28.262Z,101424.21
2023-04-03T17:51:55.787Z,101428.79
2023-04-03T17:54:23.702Z,101432.36
2023-04-03T17:56:51.265Z,101429.86
2023-04-03T17:59:19.053Z,101429.79
2023-04-03T18:01:47.362Z,101433.68
2023-04-03T18:04:15.363Z,101436.20
2023-04-03T18:06:46.176Z,101434.80
2023-04-03T18:09:16.376Z,101433.69
2023-04-03T18:11:45.933Z,101429.30
2023-04-03T18:14:15.737Z,101431.33
2023-04-03T18:16:43.291Z,101434.91
2023-04-03T18:22:02.099Z,101435.71
2023-04-03T18:24:31.581Z,101435.38
2023-04-03T18:27:02.418Z,101437.77
2023-04-03T18:29:32.803Z,101441.06
2023-04-03T18:32:03.708Z,101438.79
2023-04-03T18:34:32.026Z,101440.02
2023-04-03T18:37:00.013Z,101438.45
2023-04-03T18:39:27.557Z,101437.95
2023-04-03T18:41:56.026Z,101433.57
2023-04-03T18:44:26.358Z,101441.63
2023-04-03T18:46:55.908Z,101444.35
2023-04-03T18:49:23.621Z,101441.00
2023-04-03T18:51:51.197Z,101442.18
2023-04-03T18:54:19.853Z,101443.67
2023-04-03T18:56:47.484Z,101439.92
2023-04-03T18:59:15.047Z,101439.00
2023-04-03T19:01:42.672Z,101438.11
2023-04-03T19:04:10.959Z,101438.63
2023-04-03T19:06:38.708Z,101434.11
2023-04-03T19:09:07.496Z,101436.36
2023-04-03T19:11:35.820Z,101435.81
2023-04-03T19:14:16.035Z,101432.85
2023-04-03T19:16:45.681Z,101433.67
2023-04-03T19:19:13.394Z,101430.72
2023-04-03T19:21:41.715Z,101433.33
2023-04-03T19:24:10.807Z,101429.30
2023-04-03T19:26:38.711Z,101438.08
2023-04-03T19:29:06.421Z,101435.80
2023-04-03T19:31:36.398Z,101434.38
2023-04-03T19:34:04.594Z,101436.45
2023-04-03T19:36:33.957Z,101438.14
2023-04-03T19:39:01.557Z,101439.37
2023-04-03T19:41:31.037Z,101438.12
2023-04-03T19:43:58.581Z,101440.52
2023-04-03T19:46:28.440Z,101434.98
2023-04-03T19:48:56.464Z,101438.55
2023-04-03T19:51:24.056Z,101440.44
2023-04-03T19:53:52.409Z,101437.83
2023-04-03T19:56:20.714Z,101441.61
2023-04-03T19:58:52.985Z,101441.41
2023-04-03T20:01:21.278Z,101443.49
2023-04-03T20:03:48.920Z,101445.20
2023-04-03T20:06:16.505Z,101443.27
2023-04-03T20:08:44.477Z,101437.69
2023-04-03T20:11:12.248Z,101444.68
2023-04-03T20:13:39.942Z,101442.73
2023-04-03T20:16:08.300Z,101441.55
2023-04-03T20:18:36.470Z,101448.29
2023-04-03T20:21:06.012Z,101448.10
2023-04-03T20:23:35.786Z,101446.49
2023-04-03T20:26:10.711Z,101449.22
2023-04-03T20:28:41.111Z,101449.55
2023-04-03T20:31:09.363Z,101447.75
2023-04-03T20:33:37.397Z,101447.38
2023-04-03T20:36:05.487Z,101446.83
2023-04-03T20:38:33.073Z,101446.21
2023-04-03T20:41:00.795Z,101442.50
2023-04-03T20:43:28.685Z,101444.43
2023-04-03T20:45:58.812Z,101446.84
2023-04-03T20:48:26.649Z,101443.65
2023-04-03T20:50:55.140Z,101443.90
2023-04-03T20:53:22.851Z,101443.11
2023-04-03T20:55:59.567Z,101445.92
2023-04-03T20:58:29.577Z,101442.04
2023-04-03T21:00:57.516Z,101447.73
2023-04-03T21:03:26.816Z,101446.11
2023-04-03T21:05:59.526Z,101447.59
2023-04-03T21:09:03.580Z,101456.92
2023-04-03T21:12:07.380Z,101461.30
2023-04-03T21:15:12.808Z,101455.74
2023-04-03T21:18:00.815Z,101455.90
2023-04-03T21:20:28.384Z,101455.30
2023-04-03T21:22:55.965Z,101454.94
2023-04-03T21:25:23.643Z,101456.52
2023-04-03T21:27:51.607Z,101452.27
2023-04-03T21:30:19.323Z,101456.55
2023-04-03T21:32:46.888Z,101456.92
2023-04-03T21:35:14.488Z,101458.35
2023-04-03T21:37:42.063Z,101459.83
2023-04-03T21:40:10.529Z,101460.80
2023-04-03T21:42:38.492Z,101461.55
2023-04-03T21:45:07.742Z,101463.55
2023-04-03T21:47:35.974Z,101462.21
2023-04-03T21:50:04.149Z,101459.77
2023-04-03T21:52:32.009Z,101458.58
2023-04-03T21:54:59.615Z,101458.63
2023-04-03T21:57:27.155Z,101464.66
2023-04-03T21:59:54.797Z,101465.00
2023-04-03T22:02:22.610Z,101472.23
2023-04-03T22:04:50.126Z,101465.33
2023-04-03T22:07:17.648Z,101463.86
2023-04-03T22:09:45.212Z,101460.43
2023-04-03T22:12:12.832Z,101459.39
2023-04-03T22:14:40.487Z,101459.70
2023-04-03T22:17:08.069Z,101466.23
2023-04-03T22:19:35.648Z,101464.85
2023-04-03T22:22:03.211Z,101469.05
2023-04-03T22:24:31.493Z,101474.11
2023-04-03T22:26:59.050Z,101475.17
2023-04-03T22:29:27.424Z,101477.91
2023-04-03T22:31:55.139Z,101478.09
2023-04-03T22:34:22.913Z,101477.58
2023-04-03T22:36:50.460Z,101477.39
2023-04-03T22:39:18.662Z,101478.77
2023-04-03T22:41:46.363Z,101478.36
2023-04-03T22:44:14.140Z,101480.58
2023-04-03T22:46:41.760Z,101483.59
2023-04-03T22:49:09.346Z,101484.13
2023-04-03T22:51:36.927Z,101482.31
2023-04-03T22:54:05.002Z,101487.86
2023-04-03T22:56:32.911Z,101483.99
2023-04-03T22:59:01.104Z,101483.55
2023-04-03T23:01:29.598Z,101484.11
2023-04-03T23:03:57.373Z,101485.91
2023-04-03T23:06:26.013Z,101481.63
2023-04-03T23:08:53.609Z,101482.92
2023-04-03T23:11:21.117Z,101484.98
2023-04-03T23:13:48.652Z,101482.06
2023-04-03T23:16:16.656Z,101481.37
2023-04-03T23:18:44.197Z,101475.82
2023-04-03T23:21:11.818Z,101472.92
2023-04-03T23:23:39.350Z,101475.74
2023-04-03T23:26:08.969Z,101475.42
2023-04-03T23:28:36.576Z,101475.30
2023-04-03T23:31:05.910Z,101476.76
2023-04-03T23:33:33.670Z,101477.64
2023-04-03T23:36:07.252Z,101477.86
2023-04-03T23:38:35.177Z,101475.15
2023-04-03T23:41:02.815Z,101475.15
2023-04-03T23:43:31.386Z,101474.10
2023-04-03T23:46:00.238Z,101467.27
2023-04-03T23:48:27.871Z,101467.64
2023-04-03T23:50:55.543Z,101464.36
2023-04-03T23:53:23.116Z,101463.45
2023-04-03T23:55:51.022Z,101455.16
2023-04-03T23:58:18.552Z,101452.00
